La France, South Carolina
Current Conditions -  °F | °C
As of 11:16 AM on Wednesday 26 Nov 2014 (Local Time) from KCEU Reporting Station
Broken Clouds Broken Clouds  
Wind Chill: 52°   Ceiling: 1600
Heat Index: 52°   Visibility: 10mi
Dew Point: 42°   Wind: 6mph
Humidity: 69%   Direction: 290°WNW
Pressure: 30.04"   Gusts: NA
Location:  34.61°N, 82.77°W
Report Text: KCEU 261616Z AUTO 29005KT 10SM BKN016 BKN022 11/06 A3004 RMK AO2 T01110056
Loading
Personal Weather Stations






























Interactive Weather Map New forecast layout! Learn more

10-Day Weather Forecast

Advertisements
Track Severe Weather on mobile